KHEY/HEY METAR and TAF weather

Enter ICAO airport designator
Station Type Date Time Source
KHEY METAR 2019/06/17 12:45 UTC NOAA

KHEY 171245Z AUTO 00000KT 10SM CLR 25/23 A3003 RMK AO2 SLP168


Station Type Date Time Source
KHEY Decoded METAR 2019/06/17 12:45 UTC NOAA

Hanchey AHP / Ozark, AL, United States (KHEY) 31-21N 085-40W
Jun 17, 2019 - 08:45 AM EDT / 2019.06.17 1245 UTC
Wind: Calm:0
Visibility: 10 mile(s):0
Sky conditions: clear
Temperature: 77 F (25 C)
Dew Point: 73 F (23 C)
Relative Humidity: 88%
Pressure (altimeter): 30.03 in. Hg (1016 hPa)
ob: KHEY 171245Z AUTO 00000KT 10SM CLR 25/23 A3003 RMK AO2 SLP168
cycle: 13

Station Type Date Time Source
KHEY TAF UTC NOAA

Error!

Example: see airport list